Time;durP1;ratioP1;P1;durP2;ratioP2;P2;SDS_P1;SDS_P2;PMS_P1;PMS_P2;Temp;Humidity;BMP_temperature;BMP_pressure;BME280_temperature;BME280_humidity;BME280_pressure;Samples;Min_cycle;Max_cycle;Signal;HPM_P1;HPM_P2
2022/02/23 00:00:50;;;;;;;2.60;1.00;;;11.50;60.90;;;;;;5044174;28;20219;-45
2022/02/23 00:03:16;;;;;;;0.70;0.63;;;11.50;61.50;;;;;;5044278;28;20204;-44
2022/02/23 00:05:41;;;;;;;1.50;0.77;;;11.70;61.30;;;;;;5051796;28;20204;-44
2022/02/23 00:08:07;;;;;;;1.73;0.77;;;11.70;61.00;;;;;;5036536;28;20197;-43
2022/02/23 00:10:33;;;;;;;1.77;0.70;;;11.70;61.00;;;;;;5040379;28;20202;-44
2022/02/23 00:12:58;;;;;;;1.70;0.97;;;11.80;61.10;;;;;;5042623;28;20591;-45
2022/02/23 00:15:24;;;;;;;1.20;0.60;;;11.70;60.90;;;;;;5049038;28;20250;-43
2022/02/23 00:17:50;;;;;;;1.83;0.90;;;11.70;61.30;;;;;;5044050;28;20238;-43
2022/02/23 00:20:16;;;;;;;1.17;0.60;;;11.80;61.30;;;;;;5034930;28;20201;-44
2022/02/23 00:22:42;;;;;;;1.67;0.57;;;11.70;61.20;;;;;;5047481;28;20632;-43
2022/02/23 00:25:08;;;;;;;1.43;0.50;;;12.00;61.00;;;;;;5047562;28;20449;-43
2022/02/23 00:27:35;;;;;;;0.73;0.60;;;12.00;60.60;;;;;;5042162;28;20470;-44
2022/02/23 00:30:01;;;;;;;1.30;0.70;;;12.10;60.50;;;;;;5049915;28;20469;-45
2022/02/23 00:32:26;;;;;;;1.50;0.60;;;11.80;61.10;;;;;;5047316;28;20431;-43
2022/02/23 00:34:52;;;;;;;1.53;0.80;;;11.70;61.70;;;;;;5048757;28;20439;-46
2022/02/23 00:37:18;;;;;;;1.40;0.83;;;11.90;61.60;;;;;;5050767;28;20648;-43
2022/02/23 00:39:44;;;;;;;1.23;0.80;;;11.90;61.60;;;;;;5049130;28;20180;-44
2022/02/23 00:42:09;;;;;;;1.47;0.73;;;12.00;61.50;;;;;;5046464;28;20463;-43
2022/02/23 00:44:35;;;;;;;1.73;0.70;;;12.00;61.80;;;;;;5046066;28;20591;-45
2022/02/23 00:47:01;;;;;;;0.87;0.87;;;11.90;61.80;;;;;;5046067;28;20190;-44
2022/02/23 00:49:27;;;;;;;0.70;0.70;;;11.90;61.60;;;;;;5041926;28;20201;-43
2022/02/23 00:51:54;;;;;;;1.87;0.90;;;11.80;61.70;;;;;;5040664;28;20271;-44
2022/02/23 00:54:20;;;;;;;2.00;1.27;;;11.90;61.70;;;;;;5041132;28;20474;-45
2022/02/23 00:56:46;;;;;;;3.70;0.83;;;12.00;61.70;;;;;;5048268;28;20512;-45
2022/02/23 00:59:12;;;;;;;5.07;2.20;;;11.90;61.90;;;;;;5041591;28;20521;-44
2022/02/23 01:01:38;;;;;;;1.83;0.83;;;11.70;62.60;;;;;;5041522;28;20434;-44
2022/02/23 01:04:05;;;;;;;0.97;0.80;;;11.80;63.10;;;;;;5042373;28;20189;-44
2022/02/23 01:06:31;;;;;;;0.80;0.73;;;11.80;63.40;;;;;;5041638;28;20538;-45
2022/02/23 01:08:57;;;;;;;2.10;1.00;;;11.70;63.50;;;;;;5042426;28;20453;-46
2022/02/23 01:11:23;;;;;;;1.67;1.07;;;11.90;63.60;;;;;;5044841;28;20455;-44
2022/02/23 01:13:49;;;;;;;0.70;0.70;;;11.80;63.40;;;;;;5042239;28;20710;-43
2022/02/23 01:16:15;;;;;;;0.93;0.80;;;11.70;63.80;;;;;;5042896;28;20439;-44
2022/02/23 01:18:42;;;;;;;1.50;0.90;;;12.00;63.70;;;;;;5048991;28;20493;-45
2022/02/23 01:21:07;;;;;;;1.10;0.60;;;12.00;63.20;;;;;;5043494;28;20868;-44
2022/02/23 01:23:33;;;;;;;3.33;0.90;;;12.10;63.10;;;;;;5049175;28;20550;-44
2022/02/23 01:25:59;;;;;;;3.77;0.83;;;12.20;63.00;;;;;;5040567;28;20232;-45
2022/02/23 01:28:25;;;;;;;0.70;0.70;;;12.00;63.10;;;;;;5044799;28;20486;-45
2022/02/23 01:30:51;;;;;;;1.47;0.63;;;12.00;63.70;;;;;;5049716;28;20551;-44
2022/02/23 01:33:17;;;;;;;1.23;0.70;;;12.10;63.60;;;;;;5045769;28;20232;-45
2022/02/23 01:35:42;;;;;;;2.73;1.20;;;12.10;63.50;;;;;;5045384;28;20958;-46
2022/02/23 01:38:08;;;;;;;1.80;0.87;;;12.20;63.20;;;;;;5041437;28;20276;-46
2022/02/23 01:40:33;;;;;;;3.77;0.90;;;12.20;63.70;;;;;;5046339;28;20196;-44
2022/02/23 01:42:59;;;;;;;2.57;1.30;;;12.20;62.20;;;;;;5049527;28;20758;-45
2022/02/23 01:45:25;;;;;;;2.13;1.00;;;12.10;59.80;;;;;;5047570;28;20672;-45
2022/02/23 01:47:50;;;;;;;7.00;1.40;;;11.90;59.00;;;;;;5033443;28;20220;-45
2022/02/23 01:50:16;;;;;;;3.10;0.83;;;12.10;59.50;;;;;;5036604;28;20262;-44
2022/02/23 01:52:43;;;;;;;2.60;1.53;;;12.10;60.60;;;;;;5038835;28;20707;-45
2022/02/23 01:55:09;;;;;;;2.53;1.03;;;12.00;62.20;;;;;;5045206;28;20544;-43
2022/02/23 01:57:35;;;;;;;3.23;1.53;;;12.00;62.70;;;;;;5047123;28;20434;-44
2022/02/23 02:00:01;;;;;;;2.93;1.00;;;12.10;62.60;;;;;;5041664;28;20941;-47
2022/02/23 02:02:28;;;;;;;3.60;1.17;;;12.20;62.20;;;;;;5045201;28;20196;-45
2022/02/23 02:04:53;;;;;;;3.50;1.33;;;12.30;62.10;;;;;;5042328;28;20488;-47
2022/02/23 02:07:19;;;;;;;3.50;1.00;;;12.30;61.50;;;;;;5040799;28;20443;-43
2022/02/23 02:09:45;;;;;;;2.00;0.70;;;12.10;60.90;;;;;;5046259;28;20207;-43
2022/02/23 02:12:11;;;;;;;2.73;1.00;;;12.20;60.90;;;;;;5039128;28;20204;-43
2022/02/23 02:14:36;;;;;;;2.73;1.07;;;12.10;60.60;;;;;;5036987;28;20494;-45
2022/02/23 02:17:02;;;;;;;6.33;0.90;;;12.10;60.60;;;;;;5042793;28;20270;-45
2022/02/23 02:19:28;;;;;;;5.37;1.40;;;12.10;60.50;;;;;;5035551;28;20268;-45
2022/02/23 02:21:57;;;;;;;2.10;1.00;;;12.20;60.20;;;;;;5036705;28;20527;-45
2022/02/23 02:24:25;;;;;;;1.43;0.93;;;12.20;60.20;;;;;;5036165;28;20326;-44
2022/02/23 02:26:52;;;;;;;5.13;1.23;;;12.20;60.20;;;;;;5032785;28;20962;-44
2022/02/23 02:29:18;;;;;;;1.73;0.70;;;12.10;60.10;;;;;;5046713;28;20435;-43
2022/02/23 02:31:44;;;;;;;3.40;1.40;;;12.20;59.80;;;;;;5040701;28;20436;-43
2022/02/23 02:34:10;;;;;;;4.20;1.30;;;12.20;60.10;;;;;;5035136;28;20498;-44
2022/02/23 02:36:35;;;;;;;3.03;0.93;;;12.20;60.20;;;;;;5033871;28;20454;-45
2022/02/23 02:39:01;;;;;;;4.43;1.93;;;12.20;60.20;;;;;;5040975;28;20217;-47
2022/02/23 02:41:27;;;;;;;3.57;0.83;;;12.20;60.00;;;;;;5046505;28;20232;-44
2022/02/23 02:43:52;;;;;;;4.80;1.00;;;12.20;60.00;;;;;;5045891;28;20488;-43
2022/02/23 02:46:18;;;;;;;5.07;1.27;;;12.30;59.80;;;;;;5037470;28;20188;-44
2022/02/23 02:48:44;;;;;;;3.27;0.80;;;12.20;59.00;;;;;;5037246;28;20199;-44
2022/02/23 02:51:09;;;;;;;5.03;1.50;;;12.10;59.40;;;;;;5045508;28;20275;-45
2022/02/23 02:53:35;;;;;;;6.30;1.20;;;12.20;59.50;;;;;;5046158;28;20227;-43
2022/02/23 02:56:00;;;;;;;2.40;0.70;;;12.30;59.60;;;;;;5045298;28;20250;-43
2022/02/23 02:58:26;;;;;;;3.07;0.90;;;12.40;59.60;;;;;;5043315;28;20196;-44
2022/02/23 03:00:51;;;;;;;2.30;0.83;;;12.30;59.00;;;;;;5044573;28;20212;-44
2022/02/23 03:03:17;;;;;;;2.03;0.97;;;12.30;59.00;;;;;;5040808;28;20286;-44
2022/02/23 03:05:42;;;;;;;2.30;1.20;;;12.30;59.00;;;;;;5042850;28;20255;-45
2022/02/23 03:08:08;;;;;;;3.70;1.80;;;12.40;59.10;;;;;;5045169;28;20204;-46
2022/02/23 03:10:34;;;;;;;2.70;1.00;;;12.40;59.30;;;;;;5039922;28;20250;-43
2022/02/23 03:12:59;;;;;;;1.63;0.90;;;12.40;59.40;;;;;;5039070;28;20832;-45
2022/02/23 03:15:26;;;;;;;3.43;1.63;;;12.40;59.50;;;;;;5043678;28;20713;-47
2022/02/23 03:17:52;;;;;;;1.97;0.97;;;12.40;59.60;;;;;;5038194;28;20193;-43
2022/02/23 03:20:17;;;;;;;2.50;1.30;;;12.40;59.70;;;;;;5045665;28;20435;-43
2022/02/23 03:22:43;;;;;;;4.13;1.10;;;12.40;59.80;;;;;;5042236;28;20920;-45
2022/02/23 03:25:08;;;;;;;2.10;0.90;;;12.40;60.10;;;;;;5040792;28;20189;-43
2022/02/23 03:27:34;;;;;;;5.60;1.47;;;12.40;60.10;;;;;;5040990;28;20819;-43
2022/02/23 03:30:00;;;;;;;3.10;1.17;;;12.40;60.10;;;;;;5044331;28;20193;-43
2022/02/23 03:32:26;;;;;;;4.00;1.17;;;12.40;60.10;;;;;;5039281;28;20249;-47
2022/02/23 03:34:51;;;;;;;3.27;1.57;;;12.40;60.40;;;;;;5041702;28;20608;-44
2022/02/23 03:37:17;;;;;;;5.40;1.70;;;12.40;60.40;;;;;;5043021;28;20231;-44
2022/02/23 03:39:42;;;;;;;3.20;1.40;;;12.40;60.40;;;;;;5043572;28;20197;-44
2022/02/23 03:42:08;;;;;;;3.67;1.60;;;12.40;60.30;;;;;;5043614;28;20228;-44
2022/02/23 03:44:34;;;;;;;2.30;1.20;;;12.40;60.30;;;;;;5043675;28;20207;-43
2022/02/23 03:46:59;;;;;;;2.97;1.27;;;12.30;60.20;;;;;;5041110;28;20200;-44
2022/02/23 03:49:25;;;;;;;2.53;1.20;;;12.30;60.20;;;;;;5039118;28;20279;-43
2022/02/23 03:51:50;;;;;;;3.90;1.20;;;12.30;60.00;;;;;;5041453;28;20201;-43
2022/02/23 03:54:16;;;;;;;3.40;1.20;;;12.20;59.90;;;;;;5045456;28;20282;-46
2022/02/23 03:56:43;;;;;;;1.70;1.00;;;12.20;59.90;;;;;;5043783;28;20250;-43
2022/02/23 03:59:12;;;;;;;6.93;1.50;;;12.20;59.80;;;;;;5047390;28;20288;-44
2022/02/23 04:01:40;;;;;;;1.63;1.17;;;12.10;59.50;;;;;;5039051;28;20439;-45
2022/02/23 04:04:07;;;;;;;5.80;2.27;;;12.10;60.00;;;;;;5038470;28;20470;-45
2022/02/23 04:06:33;;;;;;;2.90;0.90;;;12.10;59.30;;;;;;5041610;28;20492;-43
2022/02/23 04:09:00;;;;;;;3.43;0.90;;;12.00;59.10;;;;;;5042689;28;20431;-43
2022/02/23 04:11:26;;;;;;;3.43;0.90;;;12.00;59.00;;;;;;5049243;28;20435;-42
2022/02/23 04:13:51;;;;;;;3.73;1.30;;;12.00;58.90;;;;;;5046986;28;20483;-43
2022/02/23 04:16:17;;;;;;;3.10;1.10;;;12.00;58.70;;;;;;5044860;28;20440;-44
2022/02/23 04:18:44;;;;;;;7.37;1.03;;;12.00;58.70;;;;;;5044531;28;20644;-43
2022/02/23 04:21:10;;;;;;;3.13;1.50;;;12.00;58.70;;;;;;5042383;28;20609;-43
2022/02/23 04:23:36;;;;;;;4.33;0.93;;;11.90;58.80;;;;;;5042803;28;20443;-43
2022/02/23 04:26:01;;;;;;;2.43;1.10;;;11.90;59.00;;;;;;5035669;28;20951;-46
2022/02/23 04:28:29;;;;;;;3.07;0.80;;;11.80;59.10;;;;;;5033107;28;20201;-44
2022/02/23 04:30:55;;;;;;;3.90;1.40;;;11.80;59.20;;;;;;5044406;28;20225;-43
2022/02/23 04:33:21;;;;;;;4.20;1.20;;;11.80;59.40;;;;;;5037187;28;20482;-43
2022/02/23 04:35:47;;;;;;;2.30;0.90;;;11.80;59.40;;;;;;5034188;28;20502;-43
2022/02/23 04:38:14;;;;;;;2.80;1.13;;;11.70;59.50;;;;;;5040322;28;20910;-43
2022/02/23 04:40:43;;;;;;;4.80;1.90;;;11.60;59.60;;;;;;5045771;28;20532;-43
2022/02/23 04:43:09;;;;;;;2.93;1.47;;;11.60;60.00;;;;;;5044608;28;20489;-44
2022/02/23 04:45:35;;;;;;;2.13;1.43;;;11.60;60.40;;;;;;5049436;28;20431;-47
2022/02/23 04:48:00;;;;;;;7.63;1.70;;;11.60;60.20;;;;;;5043279;28;20934;-43
2022/02/23 04:50:26;;;;;;;2.63;1.60;;;11.50;60.10;;;;;;5053086;28;20232;-46
2022/02/23 04:52:51;;;;;;;4.50;2.00;;;11.50;60.50;;;;;;5043327;28;20220;-44
2022/02/23 04:55:17;;;;;;;3.27;1.53;;;11.50;60.40;;;;;;5043413;28;20250;-43
2022/02/23 04:57:43;;;;;;;2.60;1.40;;;11.50;60.20;;;;;;5041233;28;20201;-43
2022/02/23 05:00:09;;;;;;;3.43;1.50;;;11.50;60.40;;;;;;5043597;28;20193;-43
2022/02/23 05:02:35;;;;;;;4.70;1.50;;;11.60;60.30;;;;;;5039994;28;20204;-44
2022/02/23 05:05:01;;;;;;;3.27;1.70;;;11.60;60.10;;;;;;5041312;28;20821;-43
2022/02/23 05:07:27;;;;;;;7.57;1.40;;;11.60;59.90;;;;;;5039464;28;22609;-43
2022/02/23 05:09:52;;;;;;;4.30;1.47;;;11.50;59.70;;;;;;5043639;28;20192;-43
2022/02/23 05:12:18;;;;;;;1.73;1.00;;;11.50;59.80;;;;;;5045686;28;20188;-44
2022/02/23 05:14:44;;;;;;;6.20;1.37;;;11.30;59.90;;;;;;5042436;28;20302;-43
2022/02/23 05:17:11;;;;;;;3.60;1.77;;;11.30;60.00;;;;;;5039033;28;20623;-43
2022/02/23 05:19:37;;;;;;;2.70;1.30;;;11.30;60.40;;;;;;5045906;28;20200;-43
2022/02/23 05:22:04;;;;;;;3.60;1.80;;;11.30;59.70;;;;;;5041913;28;20447;-45
2022/02/23 05:24:29;;;;;;;3.13;2.00;;;11.10;59.60;;;;;;5038370;28;20220;-44
2022/02/23 05:26:56;;;;;;;4.07;1.33;;;11.00;59.90;;;;;;5046788;28;20451;-44
2022/02/23 05:29:22;;;;;;;2.00;1.33;;;11.00;59.80;;;;;;5047285;28;20200;-43
2022/02/23 05:31:48;;;;;;;3.60;1.63;;;10.80;59.80;;;;;;5042981;28;20485;-43
2022/02/23 05:34:14;;;;;;;6.53;2.67;;;10.70;60.30;;;;;;5045238;28;21007;-45
2022/02/23 05:36:40;;;;;;;4.73;2.00;;;10.80;60.30;;;;;;5046830;28;20208;-43
2022/02/23 05:39:05;;;;;;;5.03;1.90;;;10.80;60.00;;;;;;5049543;28;20192;-44
2022/02/23 05:41:31;;;;;;;7.63;2.73;;;10.60;60.30;;;;;;5045438;28;20188;-43
2022/02/23 05:43:57;;;;;;;4.13;1.60;;;10.60;60.40;;;;;;5047865;28;20275;-43
2022/02/23 05:46:22;;;;;;;5.67;2.00;;;10.60;60.20;;;;;;5038768;28;20201;-48
2022/02/23 05:48:48;;;;;;;3.17;2.00;;;10.50;60.70;;;;;;5044211;28;21222;-43
2022/02/23 05:51:28;;;;;;;3.53;1.87;;;10.50;61.00;;;;;;5044749;28;20658;-43
2022/02/23 05:53:53;;;;;;;3.50;1.40;;;10.30;61.30;;;;;;5043503;28;20224;-46
2022/02/23 05:56:19;;;;;;;3.80;1.87;;;10.40;61.60;;;;;;5046809;28;20815;-48
2022/02/23 05:58:45;;;;;;;6.40;2.17;;;10.30;61.70;;;;;;5042407;28;20204;-45
2022/02/23 06:01:11;;;;;;;3.80;1.70;;;10.40;61.50;;;;;;5040857;28;20200;-45
2022/02/23 06:03:37;;;;;;;4.73;1.77;;;10.50;61.20;;;;;;5038510;28;20201;-48
2022/02/23 06:06:03;;;;;;;4.10;1.77;;;10.50;60.70;;;;;;5047268;28;20430;-45
2022/02/23 06:08:29;;;;;;;8.67;2.30;;;10.50;60.60;;;;;;5036209;28;20189;-43
2022/02/23 06:10:54;;;;;;;5.97;1.70;;;10.40;61.00;;;;;;5033562;28;21070;-43
2022/02/23 06:13:21;;;;;;;6.63;2.43;;;10.40;60.80;;;;;;5033745;28;20236;-49
2022/02/23 06:15:47;;;;;;;9.43;2.17;;;10.30;60.80;;;;;;5032285;28;20554;-44
2022/02/23 06:18:13;;;;;;;7.53;2.63;;;10.50;62.20;;;;;;5040514;28;20439;-45
2022/02/23 06:20:39;;;;;;;18.70;3.03;;;10.70;62.40;;;;;;5040416;28;20510;-47
2022/02/23 06:23:05;;;;;;;7.47;2.60;;;10.90;62.50;;;;;;5040508;28;20523;-49
2022/02/23 06:25:30;;;;;;;5.13;2.00;;;11.00;62.10;;;;;;5039496;28;20540;-43
2022/02/23 06:27:56;;;;;;;11.07;2.83;;;11.20;61.40;;;;;;5044145;28;20201;-46
2022/02/23 06:30:22;;;;;;;10.80;4.00;;;11.30;60.90;;;;;;5035191;28;20189;-45
2022/02/23 06:32:48;;;;;;;7.30;3.50;;;11.30;60.70;;;;;;5044026;28;20339;-47
2022/02/23 06:35:13;;;;;;;9.20;2.20;;;11.50;60.50;;;;;;5042006;28;21660;-43
2022/02/23 06:37:39;;;;;;;15.43;3.87;;;11.60;59.80;;;;;;5046066;28;20188;-44
2022/02/23 06:40:05;;;;;;;6.20;2.67;;;11.70;59.50;;;;;;5046582;28;20276;-48
2022/02/23 06:42:31;;;;;;;4.70;2.07;;;11.80;59.30;;;;;;5047678;28;20311;-47
2022/02/23 06:44:57;;;;;;;5.37;2.30;;;11.90;59.10;;;;;;5047341;28;20518;-44
2022/02/23 06:47:23;;;;;;;4.33;2.83;;;11.90;59.00;;;;;;5048400;28;20789;-49
2022/02/23 06:49:48;;;;;;;6.87;2.37;;;12.00;58.80;;;;;;5046545;28;20432;-47
2022/02/23 06:52:16;;;;;;;2.70;1.53;;;12.00;58.70;;;;;;5041465;28;20272;-44
2022/02/23 06:54:42;;;;;;;6.10;2.77;;;12.00;58.30;;;;;;5031318;28;20221;-48
2022/02/23 06:57:08;;;;;;;6.03;2.73;;;12.00;58.50;;;;;;5038077;28;20458;-45
2022/02/23 06:59:34;;;;;;;5.07;2.27;;;12.10;58.20;;;;;;5039652;28;20197;-43
2022/02/23 07:02:00;;;;;;;7.10;2.30;;;12.10;58.10;;;;;;5041438;28;20867;-44
2022/02/23 07:04:25;;;;;;;5.57;2.97;;;12.20;58.10;;;;;;5048732;28;20197;-45
2022/02/23 07:06:51;;;;;;;13.67;3.83;;;12.20;58.20;;;;;;5037508;28;20613;-44
2022/02/23 07:09:17;;;;;;;4.50;2.70;;;12.20;57.90;;;;;;5037372;28;20265;-45
2022/02/23 07:11:43;;;;;;;5.50;2.53;;;12.20;57.70;;;;;;5043416;28;20185;-44
2022/02/23 07:14:09;;;;;;;6.13;3.40;;;12.20;57.90;;;;;;5044428;28;20234;-49
2022/02/23 07:16:35;;;;;;;8.53;3.33;;;12.20;57.50;;;;;;5040257;28;20432;-48
2022/02/23 07:19:01;;;;;;;6.57;3.10;;;12.20;57.80;;;;;;5039137;28;20703;-45
2022/02/23 07:21:27;;;;;;;7.87;3.30;;;12.20;58.10;;;;;;5046549;28;20427;-44
2022/02/23 07:23:53;;;;;;;3.70;2.90;;;12.40;58.40;;;;;;5037120;28;20706;-44
2022/02/23 07:26:18;;;;;;;5.43;3.17;;;12.50;58.00;;;;;;5038770;28;20192;-49
2022/02/23 07:28:44;;;;;;;4.47;3.90;;;12.50;57.40;;;;;;5041895;28;20561;-47
2022/02/23 07:31:17;;;;;;;7.10;5.00;;;12.60;57.70;;;;;;5048210;28;20249;-44
2022/02/23 07:33:44;;;;;;;4.93;4.07;;;12.90;57.20;;;;;;5040496;28;20490;-44
2022/02/23 07:36:10;;;;;;;5.97;3.87;;;13.10;56.80;;;;;;5044691;28;20453;-49
2022/02/23 07:38:40;;;;;;;16.23;5.73;;;13.30;56.30;;;;;;5035601;28;20432;-50
2022/02/23 07:41:07;;;;;;;4.43;2.93;;;13.60;56.10;;;;;;5038899;28;20440;-43
2022/02/23 07:43:34;;;;;;;8.70;3.60;;;13.80;55.70;;;;;;5044266;28;20474;-47
2022/02/23 07:46:02;;;;;;;4.90;3.50;;;13.90;55.30;;;;;;5038686;28;20557;-44
2022/02/23 07:48:28;;;;;;;11.67;4.07;;;13.80;55.20;;;;;;5031187;28;20523;-45
2022/02/23 07:50:54;;;;;;;6.70;4.10;;;13.60;55.80;;;;;;5039815;28;20477;-43
2022/02/23 07:53:19;;;;;;;8.13;3.80;;;13.50;56.00;;;;;;5045206;28;20896;-46
2022/02/23 07:55:45;;;;;;;6.60;3.00;;;13.60;56.10;;;;;;5040842;28;20193;-44
2022/02/23 07:58:11;;;;;;;4.70;3.00;;;13.90;56.00;;;;;;5038759;28;20196;-45
2022/02/23 08:00:38;;;;;;;4.03;2.50;;;14.30;55.50;;;;;;5040603;28;20189;-46
2022/02/23 08:03:04;;;;;;;13.17;2.97;;;14.40;54.90;;;;;;5031294;28;20231;-44
2022/02/23 08:05:29;;;;;;;3.63;2.20;;;14.60;54.80;;;;;;5032248;28;20476;-46
2022/02/23 08:07:55;;;;;;;9.67;3.50;;;14.70;54.40;;;;;;5035213;28;20439;-45
2022/02/23 08:10:21;;;;;;;6.27;2.53;;;14.70;54.10;;;;;;5030206;28;20238;-44
2022/02/23 08:12:47;;;;;;;5.10;2.63;;;14.70;54.40;;;;;;5037745;28;20727;-46
2022/02/23 08:20:41;;;;;;;5.47;2.60;;;14.30;54.80;;;;;;5047637;28;20815;-44
2022/02/23 08:23:09;;;;;;;6.80;2.40;;;14.20;55.70;;;;;;5040316;28;20431;-46
2022/02/23 08:25:35;;;;;;;4.00;2.60;;;14.30;56.20;;;;;;5041986;28;20251;-46
2022/02/23 08:28:00;;;;;;;9.87;3.00;;;14.40;56.00;;;;;;5051871;28;20434;-46
2022/02/23 08:30:26;;;;;;;5.83;2.90;;;14.30;56.40;;;;;;5041974;28;20196;-46
2022/02/23 08:32:52;;;;;;;6.10;2.93;;;14.30;56.20;;;;;;5042360;28;22607;-49
2022/02/23 08:35:18;;;;;;;7.37;3.53;;;14.40;55.30;;;;;;5042117;28;20227;-50
2022/02/23 08:37:44;;;;;;;5.67;2.63;;;14.20;55.60;;;;;;5042534;28;20864;-44
2022/02/23 08:40:10;;;;;;;5.43;2.60;;;14.00;55.80;;;;;;5042894;28;20443;-44
2022/02/23 08:42:35;;;;;;;6.87;2.50;;;14.00;56.70;;;;;;5051257;28;20755;-47
2022/02/23 08:45:01;;;;;;;6.40;3.07;;;14.20;56.70;;;;;;5049226;28;20574;-48
2022/02/23 08:47:28;;;;;;;3.77;2.03;;;14.50;56.40;;;;;;5046209;28;20217;-47
2022/02/23 08:49:54;;;;;;;9.13;2.67;;;14.50;55.20;;;;;;5050798;28;20197;-50
2022/02/23 08:52:20;;;;;;;5.83;3.10;;;14.50;55.30;;;;;;5046113;28;20437;-49
2022/02/23 08:54:45;;;;;;;4.13;2.50;;;14.50;54.80;;;;;;5041165;28;20225;-44
2022/02/23 08:57:11;;;;;;;6.70;2.83;;;14.20;55.00;;;;;;5036958;28;20201;-48
2022/02/23 08:59:37;;;;;;;6.60;2.00;;;14.00;55.00;;;;;;5033618;28;20324;-49
2022/02/23 09:02:04;;;;;;;4.07;2.13;;;13.80;56.50;;;;;;5038555;28;20276;-48
2022/02/23 09:04:29;;;;;;;6.53;2.47;;;14.10;56.40;;;;;;5047137;28;20443;-46
2022/02/23 09:06:55;;;;;;;7.30;2.50;;;14.20;55.40;;;;;;5044985;28;20440;-45
2022/02/23 09:09:21;;;;;;;4.80;2.50;;;14.30;56.00;;;;;;5039959;28;20192;-49
2022/02/23 09:11:47;;;;;;;9.27;4.00;;;14.30;55.60;;;;;;5037138;28;20200;-47
2022/02/23 09:14:14;;;;;;;6.10;2.93;;;14.00;56.40;;;;;;5034840;28;21007;-49
2022/02/23 09:16:40;;;;;;;6.63;2.50;;;14.30;56.60;;;;;;5050422;28;20438;-50
2022/02/23 09:19:06;;;;;;;6.50;3.40;;;14.50;55.80;;;;;;5043897;28;20458;-47
2022/02/23 09:21:32;;;;;;;8.90;2.70;;;14.50;55.30;;;;;;5040085;28;20582;-47
2022/02/23 09:23:59;;;;;;;4.67;2.20;;;14.40;55.70;;;;;;5045619;28;20189;-50
2022/02/23 09:26:25;;;;;;;9.10;2.80;;;14.50;55.80;;;;;;5043126;28;20993;-48
2022/02/23 09:28:51;;;;;;;5.70;2.77;;;14.60;55.20;;;;;;5042945;28;20431;-46
2022/02/23 09:31:17;;;;;;;3.97;1.97;;;14.60;55.10;;;;;;5040691;28;20492;-48
2022/02/23 09:33:44;;;;;;;3.20;2.10;;;14.50;56.10;;;;;;5036890;28;20363;-42
2022/02/23 09:36:10;;;;;;;5.43;2.30;;;15.00;54.70;;;;;;5045479;28;20892;-47
2022/02/23 09:38:36;;;;;;;5.43;2.17;;;15.40;53.30;;;;;;5046577;28;20561;-50
2022/02/23 09:41:04;;;;;;;9.43;2.47;;;15.90;52.00;;;;;;5045932;28;20423;-48
2022/02/23 09:43:31;;;;;;;5.10;1.80;;;16.10;50.90;;;;;;5043891;28;20467;-45
2022/02/23 09:45:57;;;;;;;8.80;1.87;;;16.20;50.60;;;;;;5043726;28;20451;-46
2022/02/23 09:48:28;;;;;;;7.23;2.67;;;16.30;48.50;;;;;;5044204;28;20438;-49
2022/02/23 09:50:55;;;;;;;6.83;2.00;;;16.50;48.50;;;;;;5041811;28;20295;-46
2022/02/23 09:53:22;;;;;;;3.77;1.70;;;16.60;48.50;;;;;;5037477;28;20485;-49
2022/02/23 09:55:48;;;;;;;6.93;1.80;;;16.70;48.70;;;;;;5043238;28;20474;-50
2022/02/23 09:58:14;;;;;;;5.50;1.83;;;16.80;47.90;;;;;;5045676;28;20785;-47
2022/02/23 10:00:41;;;;;;;6.20;1.80;;;16.90;47.20;;;;;;5039289;28;20509;-46
2022/02/23 10:03:07;;;;;;;2.50;1.47;;;17.00;47.20;;;;;;5042256;28;20493;-45
2022/02/23 10:05:43;;;;;;;4.43;1.40;;;17.20;45.80;;;;;;5046385;28;20435;-44
2022/02/23 10:08:10;;;;;;;8.90;2.23;;;17.20;46.30;;;;;;5040624;28;20442;-50
2022/02/23 10:10:38;;;;;;;6.87;1.97;;;17.00;46.00;;;;;;5039603;28;21057;-47
2022/02/23 10:13:07;;;;;;;6.10;2.00;;;17.10;46.80;;;;;;5042154;28;20899;-48
2022/02/23 10:15:39;;;;;;;4.60;1.70;;;17.30;47.20;;;;;;5043177;28;20440;-45
2022/02/23 10:18:08;;;;;;;3.27;1.40;;;17.50;45.40;;;;;;5042502;28;20439;-45
2022/02/23 10:20:39;;;;;;;1.87;1.40;;;17.70;45.60;;;;;;5049894;28;20809;-47
2022/02/23 10:23:15;;;;;;;5.40;1.50;;;17.60;45.40;;;;;;5040997;28;20522;-47
2022/02/23 10:25:43;;;;;;;14.20;2.33;;;17.80;44.60;;;;;;5043122;28;20797;-49
2022/02/23 10:28:14;;;;;;;4.10;1.10;;;18.00;43.90;;;;;;5035499;28;20958;-44
2022/02/23 10:30:53;;;;;;;4.57;1.63;;;18.10;42.30;;;;;;5037878;28;20435;-47
2022/02/23 10:33:21;;;;;;;8.20;1.63;;;18.20;42.60;;;;;;5037317;28;20490;-45
2022/02/23 10:36:06;;;;;;;5.17;2.10;;;18.30;43.20;;;;;;5036757;28;20450;-47
2022/02/23 10:38:37;;;;;;;5.57;1.80;;;18.50;42.30;;;;;;5043522;28;20455;-46
2022/02/23 10:41:06;;;;;;;7.60;2.33;;;18.30;40.80;;;;;;5043423;28;20451;-48
2022/02/23 10:43:36;;;;;;;6.20;2.10;;;18.40;43.10;;;;;;5042184;28;20467;-45
2022/02/23 10:46:15;;;;;;;3.13;1.63;;;18.70;42.40;;;;;;5040498;28;20446;-46
2022/02/23 10:48:45;;;;;;;8.90;2.27;;;19.00;42.20;;;;;;5037186;28;20443;-45
2022/02/23 10:51:22;;;;;;;6.67;1.77;;;19.00;41.90;;;;;;5040416;28;20451;-44
2022/02/23 10:53:50;;;;;;;3.60;1.77;;;18.80;41.00;;;;;;5039346;28;20486;-45
2022/02/23 10:56:25;;;;;;;5.27;1.80;;;18.80;40.00;;;;;;5041382;28;20600;-45
2022/02/23 10:59:11;;;;;;;5.80;1.53;;;18.90;40.50;;;;;;5042971;28;20448;-47
2022/02/23 11:01:39;;;;;;;7.13;1.70;;;18.80;40.70;;;;;;5045823;28;20553;-45
2022/02/23 11:04:06;;;;;;;9.17;1.50;;;19.00;41.30;;;;;;5043893;28;20467;-48
2022/02/23 11:06:32;;;;;;;2.80;1.73;;;18.70;39.80;;;;;;5043975;28;20435;-44
2022/02/23 11:08:59;;;;;;;4.40;1.70;;;18.80;40.40;;;;;;5046615;28;20974;-43
2022/02/23 11:11:26;;;;;;;9.53;2.23;;;19.00;39.70;;;;;;5041848;28;21202;-43
2022/02/23 11:13:52;;;;;;;5.40;2.27;;;19.10;38.50;;;;;;5043111;28;20560;-45
2022/02/23 11:16:19;;;;;;;4.30;1.73;;;19.20;39.70;;;;;;5036379;28;20427;-45
2022/02/23 11:18:50;;;;;;;3.83;1.57;;;19.30;40.20;;;;;;5045528;28;20938;-45
2022/02/23 11:21:17;;;;;;;5.10;1.60;;;19.40;41.00;;;;;;5048383;28;20925;-44
2022/02/23 11:23:45;;;;;;;4.23;1.93;;;19.70;39.70;;;;;;5041596;28;20431;-46
2022/02/23 11:26:15;;;;;;;6.50;1.70;;;19.60;40.70;;;;;;5043247;28;20459;-43
2022/02/23 11:28:55;;;;;;;5.33;1.80;;;19.60;39.30;;;;;;5038488;28;20802;-46
2022/02/23 11:31:21;;;;;;;3.77;1.90;;;19.70;39.30;;;;;;5046968;28;20439;-48
2022/02/23 11:33:46;;;;;;;8.60;1.90;;;19.60;38.50;;;;;;5046597;28;20470;-46
2022/02/23 11:36:29;;;;;;;3.50;1.80;;;19.50;39.60;;;;;;5046850;28;20558;-46
2022/02/23 11:39:09;;;;;;;4.83;2.20;;;19.40;39.40;;;;;;5046487;28;20250;-44
2022/02/23 11:41:40;;;;;;;5.13;1.60;;;19.40;39.40;;;;;;5040805;28;20506;-44
2022/02/23 11:44:08;;;;;;;3.60;1.70;;;19.30;37.80;;;;;;5022625;28;20447;-45
2022/02/23 11:46:53;;;;;;;5.10;1.57;;;19.20;38.30;;;;;;5046987;28;20512;-44
2022/02/23 11:49:47;;;;;;;2.77;1.90;;;19.30;38.80;;;;;;5043995;28;20435;-43
2022/02/23 11:57:59;;;;;;;4.37;1.73;;;19.20;40.30;;;;;;5042954;28;20443;-44
2022/02/23 12:00:44;;;;;;;5.07;1.60;;;19.20;40.30;;;;;;5046057;28;20643;-45
2022/02/23 12:03:30;;;;;;;4.30;1.70;;;19.50;40.50;;;;;;5042451;28;21000;-44
2022/02/23 12:06:03;;;;;;;7.30;2.40;;;19.70;39.60;;;;;;5043245;28;20439;-45
2022/02/23 12:08:31;;;;;;;4.20;1.87;;;19.90;39.20;;;;;;5043550;28;20461;-44
2022/02/23 12:11:15;;;;;;;5.20;2.07;;;20.00;37.50;;;;;;5037862;28;20444;-44
2022/02/23 12:13:58;;;;;;;8.23;2.13;;;19.50;37.40;;;;;;5045060;28;20489;-47
2022/02/23 12:16:25;;;;;;;3.07;1.60;;;19.50;38.30;;;;;;5032536;28;20531;-44
2022/02/23 12:18:58;;;;;;;4.17;2.00;;;19.50;38.90;;;;;;5045308;28;20522;-44
2022/02/23 12:21:54;;;;;;;4.20;1.83;;;19.60;37.90;;;;;;5046785;28;20463;-46
2022/02/23 12:24:22;;;;;;;9.33;1.90;;;19.80;37.80;;;;;;5047050;28;20454;-45
2022/02/23 12:26:51;;;;;;;3.67;2.37;;;19.60;37.30;;;;;;5042715;28;20489;-46
2022/02/23 12:29:16;;;;;;;5.10;1.90;;;19.50;37.50;;;;;;5040073;28;20494;-45
2022/02/23 12:31:44;;;;;;;2.07;1.27;;;19.60;36.90;;;;;;5037838;28;20444;-46
2022/02/23 12:34:17;;;;;;;5.30;2.10;;;19.80;37.90;;;;;;5033219;28;20771;-46
2022/02/23 12:36:55;;;;;;;6.00;2.63;;;19.90;36.60;;;;;;5036240;28;20447;-44
2022/02/23 12:39:25;;;;;;;6.30;1.67;;;20.10;37.20;;;;;;5042962;28;20846;-45
2022/02/23 12:41:56;;;;;;;3.87;2.00;;;20.00;36.70;;;;;;5041814;28;20479;-45
2022/02/23 12:44:23;;;;;;;4.30;1.80;;;20.10;37.00;;;;;;5035960;28;20451;-45
2022/02/23 12:46:57;;;;;;;5.03;1.63;;;20.20;36.40;;;;;;5044738;28;20435;-44
2022/02/23 12:49:23;;;;;;;2.87;2.27;;;20.40;34.80;;;;;;5038715;28;20510;-47
2022/02/23 12:51:51;;;;;;;6.27;2.63;;;20.10;35.60;;;;;;5039294;28;20431;-45
2022/02/23 12:54:19;;;;;;;4.37;2.03;;;20.10;35.80;;;;;;5041376;28;20536;-46
2022/02/23 12:56:47;;;;;;;6.80;2.20;;;20.30;35.90;;;;;;5034554;28;20557;-45